< < Back
Terminal Aerodrome Forecast


Current Version              Previous Versions:   1  2  3  4  5  6  7  8  9  

Terminal Aerodrome Forecast

323
FTUS44 KHUN 052320
TAFHSV
TAF
KHSV 052320Z 0600/0624 36011G15KT P6SM OVC020
     FM060100 36011G15KT P6SM SCT050
     FM060900 01006KT P6SM SCT050
     FM061500 02006KT P6SM SKC
     FM062200 34005KT P6SM SKC=

Latest METAR

789
SAUS80 KWBC 061100
MTRHSV
METAR KHSV 061053Z AUTO 35003KT 10SM CLR M08/M12 A3049 RMK AO2 SLP332
T10831117 $


USA.gov is the U.S. government's official web portal to all federal, state and local government web resources and services.